sensor_id;sensor_type;location;lat;lon;timestamp;temperature;humidity
15556;DHT22;7879;48.660;9.116;2022-12-22T00:01:46;7.70;99.90
15556;DHT22;7879;48.660;9.116;2022-12-22T00:04:32;7.60;99.90
15556;DHT22;7879;48.660;9.116;2022-12-22T00:07:18;7.60;99.90
15556;DHT22;7879;48.660;9.116;2022-12-22T00:10:03;7.70;99.90
15556;DHT22;7879;48.660;9.116;2022-12-22T00:12:49;7.70;99.90
15556;DHT22;7879;48.660;9.116;2022-12-22T00:15:34;7.70;99.90
15556;DHT22;7879;48.660;9.116;2022-12-22T00:18:20;7.70;99.90
15556;DHT22;7879;48.660;9.116;2022-12-22T00:21:07;7.70;99.90
15556;DHT22;7879;48.660;9.116;2022-12-22T00:23:53;7.60;99.90
15556;DHT22;7879;48.660;9.116;2022-12-22T00:26:39;7.70;99.90
15556;DHT22;7879;48.660;9.116;2022-12-22T00:29:26;7.70;99.90
15556;DHT22;7879;48.660;9.116;2022-12-22T00:32:15;7.80;99.90
15556;DHT22;7879;48.660;9.116;2022-12-22T00:35:00;7.80;99.90
15556;DHT22;7879;48.660;9.116;2022-12-22T00:37:46;7.80;99.90
15556;DHT22;7879;48.660;9.116;2022-12-22T00:40:31;7.70;99.90
15556;DHT22;7879;48.660;9.116;2022-12-22T00:43:16;7.70;99.90
15556;DHT22;7879;48.660;9.116;2022-12-22T00:46:02;7.70;99.90
15556;DHT22;7879;48.660;9.116;2022-12-22T00:48:49;7.80;99.90
15556;DHT22;7879;48.660;9.116;2022-12-22T00:51:34;7.70;99.90
15556;DHT22;7879;48.660;9.116;2022-12-22T00:54:21;7.70;99.90
15556;DHT22;7879;48.660;9.116;2022-12-22T00:57:15;7.70;99.90
15556;DHT22;7879;48.660;9.116;2022-12-22T01:00:03;7.70;99.90
15556;DHT22;7879;48.660;9.116;2022-12-22T01:02:49;7.70;99.90
15556;DHT22;7879;48.660;9.116;2022-12-22T01:05:35;7.70;99.90
15556;DHT22;7879;48.660;9.116;2022-12-22T01:08:20;7.70;99.90
15556;DHT22;7879;48.660;9.116;2022-12-22T01:11:06;7.70;99.90
15556;DHT22;7879;48.660;9.116;2022-12-22T01:13:52;7.70;99.90
15556;DHT22;7879;48.660;9.116;2022-12-22T01:16:37;7.70;99.90
15556;DHT22;7879;48.660;9.116;2022-12-22T01:19:26;7.70;99.90
15556;DHT22;7879;48.660;9.116;2022-12-22T01:22:12;7.70;99.90
15556;DHT22;7879;48.660;9.116;2022-12-22T01:25:00;7.70;99.90
15556;DHT22;7879;48.660;9.116;2022-12-22T01:27:45;7.80;99.90
15556;DHT22;7879;48.660;9.116;2022-12-22T01:30:30;7.80;99.90
15556;DHT22;7879;48.660;9.116;2022-12-22T01:33:16;7.70;99.90
15556;DHT22;7879;48.660;9.116;2022-12-22T01:36:01;7.80;99.90
15556;DHT22;7879;48.660;9.116;2022-12-22T01:38:47;7.80;99.90
15556;DHT22;7879;48.660;9.116;2022-12-22T01:41:32;7.80;99.90
15556;DHT22;7879;48.660;9.116;2022-12-22T01:44:18;7.80;99.90
15556;DHT22;7879;48.660;9.116;2022-12-22T01:50:24;7.80;99.90
15556;DHT22;7879;48.660;9.116;2022-12-22T01:53:15;7.80;99.90
15556;DHT22;7879;48.660;9.116;2022-12-22T01:56:04;7.80;99.90
15556;DHT22;7879;48.660;9.116;2022-12-22T01:58:53;7.80;99.90
15556;DHT22;7879;48.660;9.116;2022-12-22T02:01:40;7.80;99.90
15556;DHT22;7879;48.660;9.116;2022-12-22T02:04:30;7.90;99.90
15556;DHT22;7879;48.660;9.116;2022-12-22T02:07:41;7.90;99.90
15556;DHT22;7879;48.660;9.116;2022-12-22T02:13:33;7.90;99.90
15556;DHT22;7879;48.660;9.116;2022-12-22T02:16:38;7.90;99.90
15556;DHT22;7879;48.660;9.116;2022-12-22T02:29:25;8.00;99.90
15556;DHT22;7879;48.660;9.116;2022-12-22T02:32:12;8.00;99.90
15556;DHT22;7879;48.660;9.116;2022-12-22T02:34:57;8.00;99.90
15556;DHT22;7879;48.660;9.116;2022-12-22T02:37:57;8.00;99.90
15556;DHT22;7879;48.660;9.116;2022-12-22T02:50:30;8.00;99.90
15556;DHT22;7879;48.660;9.116;2022-12-22T02:53:17;8.00;99.90
15556;DHT22;7879;48.660;9.116;2022-12-22T02:56:07;8.00;99.90
15556;DHT22;7879;48.660;9.116;2022-12-22T02:58:53;8.00;99.90
15556;DHT22;7879;48.660;9.116;2022-12-22T03:01:41;8.00;99.90
15556;DHT22;7879;48.660;9.116;2022-12-22T03:04:27;7.90;99.90
15556;DHT22;7879;48.660;9.116;2022-12-22T03:07:13;7.90;99.90
15556;DHT22;7879;48.660;9.116;2022-12-22T03:09:58;7.90;99.90
15556;DHT22;7879;48.660;9.116;2022-12-22T03:12:43;7.90;99.90
15556;DHT22;7879;48.660;9.116;2022-12-22T03:15:29;7.90;99.90
15556;DHT22;7879;48.660;9.116;2022-12-22T03:18:15;7.80;99.90
15556;DHT22;7879;48.660;9.116;2022-12-22T03:21:00;7.80;99.90
15556;DHT22;7879;48.660;9.116;2022-12-22T03:23:46;7.90;99.90
15556;DHT22;7879;48.660;9.116;2022-12-22T03:26:31;7.80;99.90
15556;DHT22;7879;48.660;9.116;2022-12-22T03:28:59;7.80;99.90
15556;DHT22;7879;48.660;9.116;2022-12-22T03:31:26;7.90;99.90
15556;DHT22;7879;48.660;9.116;2022-12-22T03:33:53;7.90;99.90
15556;DHT22;7879;48.660;9.116;2022-12-22T03:36:20;7.90;99.90
15556;DHT22;7879;48.660;9.116;2022-12-22T03:38:47;8.00;99.90
15556;DHT22;7879;48.660;9.116;2022-12-22T03:41:13;8.00;99.90
15556;DHT22;7879;48.660;9.116;2022-12-22T03:43:59;8.00;99.90
15556;DHT22;7879;48.660;9.116;2022-12-22T03:46:45;7.90;99.90
15556;DHT22;7879;48.660;9.116;2022-12-22T03:49:11;7.90;99.90
15556;DHT22;7879;48.660;9.116;2022-12-22T03:51:56;7.90;99.90
15556;DHT22;7879;48.660;9.116;2022-12-22T03:54:24;7.90;99.90
15556;DHT22;7879;48.660;9.116;2022-12-22T03:56:52;8.00;99.90
15556;DHT22;7879;48.660;9.116;2022-12-22T03:59:19;7.90;99.90
15556;DHT22;7879;48.660;9.116;2022-12-22T04:01:50;8.00;99.90
15556;DHT22;7879;48.660;9.116;2022-12-22T04:04:20;8.00;99.90
15556;DHT22;7879;48.660;9.116;2022-12-22T04:06:47;8.00;99.90
15556;DHT22;7879;48.660;9.116;2022-12-22T04:09:14;8.10;99.90
15556;DHT22;7879;48.660;9.116;2022-12-22T04:11:41;8.10;99.90
15556;DHT22;7879;48.660;9.116;2022-12-22T04:14:26;8.10;99.90
15556;DHT22;7879;48.660;9.116;2022-12-22T04:17:00;8.10;99.90
15556;DHT22;7879;48.660;9.116;2022-12-22T04:19:27;8.10;99.90
15556;DHT22;7879;48.660;9.116;2022-12-22T04:21:54;8.10;99.90
15556;DHT22;7879;48.660;9.116;2022-12-22T04:24:20;8.10;99.90
15556;DHT22;7879;48.660;9.116;2022-12-22T04:26:48;8.10;99.90
15556;DHT22;7879;48.660;9.116;2022-12-22T04:29:15;8.10;99.90
15556;DHT22;7879;48.660;9.116;2022-12-22T04:31:42;8.20;99.90
15556;DHT22;7879;48.660;9.116;2022-12-22T04:34:10;8.20;99.90
15556;DHT22;7879;48.660;9.116;2022-12-22T04:36:36;8.30;99.90
15556;DHT22;7879;48.660;9.116;2022-12-22T04:39:03;8.30;99.90
15556;DHT22;7879;48.660;9.116;2022-12-22T04:41:30;8.40;99.90
15556;DHT22;7879;48.660;9.116;2022-12-22T04:43:57;8.40;99.90
15556;DHT22;7879;48.660;9.116;2022-12-22T04:46:24;8.40;99.90
15556;DHT22;7879;48.660;9.116;2022-12-22T04:48:51;8.40;99.90
15556;DHT22;7879;48.660;9.116;2022-12-22T04:51:25;8.40;99.90
15556;DHT22;7879;48.660;9.116;2022-12-22T04:53:52;8.40;99.90
15556;DHT22;7879;48.660;9.116;2022-12-22T04:56:18;8.50;99.90
15556;DHT22;7879;48.660;9.116;2022-12-22T04:58:45;8.50;99.90
15556;DHT22;7879;48.660;9.116;2022-12-22T05:01:16;8.50;99.90
15556;DHT22;7879;48.660;9.116;2022-12-22T05:03:44;8.50;99.90
15556;DHT22;7879;48.660;9.116;2022-12-22T05:06:12;8.50;99.90
15556;DHT22;7879;48.660;9.116;2022-12-22T05:08:39;8.60;99.90
15556;DHT22;7879;48.660;9.116;2022-12-22T05:11:06;8.50;99.90
15556;DHT22;7879;48.660;9.116;2022-12-22T05:13:33;8.50;99.90
15556;DHT22;7879;48.660;9.116;2022-12-22T05:16:08;8.60;99.90
15556;DHT22;7879;48.660;9.116;2022-12-22T05:18:36;8.60;99.90
15556;DHT22;7879;48.660;9.116;2022-12-22T05:21:11;8.60;99.90
15556;DHT22;7879;48.660;9.116;2022-12-22T05:23:38;8.60;99.90
15556;DHT22;7879;48.660;9.116;2022-12-22T05:26:05;8.60;99.90
15556;DHT22;7879;48.660;9.116;2022-12-22T05:28:32;8.60;99.90
15556;DHT22;7879;48.660;9.116;2022-12-22T05:31:06;8.60;99.90
15556;DHT22;7879;48.660;9.116;2022-12-22T05:33:33;8.60;99.90
15556;DHT22;7879;48.660;9.116;2022-12-22T05:36:01;8.50;99.90
15556;DHT22;7879;48.660;9.116;2022-12-22T05:38:28;8.50;99.90
15556;DHT22;7879;48.660;9.116;2022-12-22T05:40:55;8.50;99.90
15556;DHT22;7879;48.660;9.116;2022-12-22T05:43:29;8.50;99.90
15556;DHT22;7879;48.660;9.116;2022-12-22T05:45:56;8.50;99.90
15556;DHT22;7879;48.660;9.116;2022-12-22T05:48:24;8.50;99.90
15556;DHT22;7879;48.660;9.116;2022-12-22T05:50:59;8.50;99.90
15556;DHT22;7879;48.660;9.116;2022-12-22T05:53:26;8.50;99.90
15556;DHT22;7879;48.660;9.116;2022-12-22T05:55:53;8.50;99.90
15556;DHT22;7879;48.660;9.116;2022-12-22T05:58:19;8.50;99.90
15556;DHT22;7879;48.660;9.116;2022-12-22T06:00:46;8.50;99.90
15556;DHT22;7879;48.660;9.116;2022-12-22T06:03:13;8.50;99.90
15556;DHT22;7879;48.660;9.116;2022-12-22T06:05:40;8.40;99.90
15556;DHT22;7879;48.660;9.116;2022-12-22T06:08:06;8.40;99.90
15556;DHT22;7879;48.660;9.116;2022-12-22T06:10:33;8.40;99.90
15556;DHT22;7879;48.660;9.116;2022-12-22T06:13:00;8.40;99.90
15556;DHT22;7879;48.660;9.116;2022-12-22T06:15:27;8.40;99.90
15556;DHT22;7879;48.660;9.116;2022-12-22T06:17:53;8.30;99.90
15556;DHT22;7879;48.660;9.116;2022-12-22T06:20:20;8.40;99.90
15556;DHT22;7879;48.660;9.116;2022-12-22T06:22:47;8.40;99.90
15556;DHT22;7879;48.660;9.116;2022-12-22T06:25:14;8.40;99.90
15556;DHT22;7879;48.660;9.116;2022-12-22T06:27:45;8.30;99.90
15556;DHT22;7879;48.660;9.116;2022-12-22T06:30:14;8.30;99.90
15556;DHT22;7879;48.660;9.116;2022-12-22T06:32:41;8.30;99.90
15556;DHT22;7879;48.660;9.116;2022-12-22T06:35:09;8.30;99.90
15556;DHT22;7879;48.660;9.116;2022-12-22T06:37:36;8.30;99.90
15556;DHT22;7879;48.660;9.116;2022-12-22T06:40:03;8.30;99.90
15556;DHT22;7879;48.660;9.116;2022-12-22T06:42:30;8.30;99.90
15556;DHT22;7879;48.660;9.116;2022-12-22T06:45:16;8.30;99.90
15556;DHT22;7879;48.660;9.116;2022-12-22T06:47:42;8.40;99.90
15556;DHT22;7879;48.660;9.116;2022-12-22T06:50:09;8.40;99.90
15556;DHT22;7879;48.660;9.116;2022-12-22T06:52:36;8.40;99.90
15556;DHT22;7879;48.660;9.116;2022-12-22T06:55:04;8.40;99.90
15556;DHT22;7879;48.660;9.116;2022-12-22T06:57:30;8.50;99.90
15556;DHT22;7879;48.660;9.116;2022-12-22T06:59:57;8.50;99.90
15556;DHT22;7879;48.660;9.116;2022-12-22T07:02:24;8.50;99.90
15556;DHT22;7879;48.660;9.116;2022-12-22T07:04:51;8.60;99.90
15556;DHT22;7879;48.660;9.116;2022-12-22T07:07:18;8.60;99.90
15556;DHT22;7879;48.660;9.116;2022-12-22T07:09:44;8.60;99.90
15556;DHT22;7879;48.660;9.116;2022-12-22T07:12:12;8.60;99.90
15556;DHT22;7879;48.660;9.116;2022-12-22T07:14:39;8.60;99.90
15556;DHT22;7879;48.660;9.116;2022-12-22T07:17:06;8.60;99.90
15556;DHT22;7879;48.660;9.116;2022-12-22T07:19:34;8.60;99.90
15556;DHT22;7879;48.660;9.116;2022-12-22T07:22:02;8.60;99.90
15556;DHT22;7879;48.660;9.116;2022-12-22T07:24:29;8.60;99.90
15556;DHT22;7879;48.660;9.116;2022-12-22T07:26:56;8.60;99.90
15556;DHT22;7879;48.660;9.116;2022-12-22T07:29:22;8.60;99.90
15556;DHT22;7879;48.660;9.116;2022-12-22T07:31:49;8.60;99.90
15556;DHT22;7879;48.660;9.116;2022-12-22T07:34:16;8.70;99.90
15556;DHT22;7879;48.660;9.116;2022-12-22T07:36:43;8.70;99.90
15556;DHT22;7879;48.660;9.116;2022-12-22T07:39:11;8.80;99.90
15556;DHT22;7879;48.660;9.116;2022-12-22T07:41:38;8.80;99.90
15556;DHT22;7879;48.660;9.116;2022-12-22T07:44:24;8.70;99.90
15556;DHT22;7879;48.660;9.116;2022-12-22T07:46:51;8.70;99.90
15556;DHT22;7879;48.660;9.116;2022-12-22T07:49:17;8.60;99.90
15556;DHT22;7879;48.660;9.116;2022-12-22T07:52:03;8.60;99.90
15556;DHT22;7879;48.660;9.116;2022-12-22T07:54:30;8.50;99.90
15556;DHT22;7879;48.660;9.116;2022-12-22T07:57:03;8.50;99.90
15556;DHT22;7879;48.660;9.116;2022-12-22T07:59:30;8.40;99.90
15556;DHT22;7879;48.660;9.116;2022-12-22T08:01:57;8.40;99.90
15556;DHT22;7879;48.660;9.116;2022-12-22T08:04:24;8.30;99.90
15556;DHT22;7879;48.660;9.116;2022-12-22T08:06:50;8.30;99.90
15556;DHT22;7879;48.660;9.116;2022-12-22T08:09:18;8.20;99.90
15556;DHT22;7879;48.660;9.116;2022-12-22T08:11:47;8.20;99.90
15556;DHT22;7879;48.660;9.116;2022-12-22T08:14:15;8.20;99.90
15556;DHT22;7879;48.660;9.116;2022-12-22T08:16:41;8.20;99.90
15556;DHT22;7879;48.660;9.116;2022-12-22T08:19:08;8.20;99.90
15556;DHT22;7879;48.660;9.116;2022-12-22T08:21:35;8.10;99.90
15556;DHT22;7879;48.660;9.116;2022-12-22T08:24:02;8.20;99.90
15556;DHT22;7879;48.660;9.116;2022-12-22T08:26:37;8.20;99.90
15556;DHT22;7879;48.660;9.116;2022-12-22T08:29:26;8.40;99.90
15556;DHT22;7879;48.660;9.116;2022-12-22T08:31:54;8.30;99.90
15556;DHT22;7879;48.660;9.116;2022-12-22T08:34:22;8.30;99.90
15556;DHT22;7879;48.660;9.116;2022-12-22T08:36:53;8.30;99.90
15556;DHT22;7879;48.660;9.116;2022-12-22T08:39:21;8.30;99.90
15556;DHT22;7879;48.660;9.116;2022-12-22T08:41:48;8.40;99.90
15556;DHT22;7879;48.660;9.116;2022-12-22T08:44:27;8.30;99.90
15556;DHT22;7879;48.660;9.116;2022-12-22T08:46:55;8.40;99.90
15556;DHT22;7879;48.660;9.116;2022-12-22T08:49:23;8.40;99.90
15556;DHT22;7879;48.660;9.116;2022-12-22T08:51:50;8.50;99.90
15556;DHT22;7879;48.660;9.116;2022-12-22T08:54:17;8.60;99.90
15556;DHT22;7879;48.660;9.116;2022-12-22T08:56:45;8.70;99.90
15556;DHT22;7879;48.660;9.116;2022-12-22T08:59:13;8.90;99.90
15556;DHT22;7879;48.660;9.116;2022-12-22T09:01:41;8.80;99.90
15556;DHT22;7879;48.660;9.116;2022-12-22T09:04:14;8.80;99.90
15556;DHT22;7879;48.660;9.116;2022-12-22T09:06:41;8.70;99.90
15556;DHT22;7879;48.660;9.116;2022-12-22T09:09:09;8.70;99.90
15556;DHT22;7879;48.660;9.116;2022-12-22T09:11:37;8.80;99.90
15556;DHT22;7879;48.660;9.116;2022-12-22T09:14:05;8.90;99.90
15556;DHT22;7879;48.660;9.116;2022-12-22T09:16:33;9.10;99.90
15556;DHT22;7879;48.660;9.116;2022-12-22T09:19:01;9.30;99.90
15556;DHT22;7879;48.660;9.116;2022-12-22T09:21:28;9.20;99.90
15556;DHT22;7879;48.660;9.116;2022-12-22T09:23:55;9.10;99.90
15556;DHT22;7879;48.660;9.116;2022-12-22T09:26:24;8.90;99.90
15556;DHT22;7879;48.660;9.116;2022-12-22T09:28:51;8.80;99.90
15556;DHT22;7879;48.660;9.116;2022-12-22T09:31:19;8.70;99.90
15556;DHT22;7879;48.660;9.116;2022-12-22T09:33:46;8.70;99.90
15556;DHT22;7879;48.660;9.116;2022-12-22T09:36:15;8.60;99.90
15556;DHT22;7879;48.660;9.116;2022-12-22T09:38:43;8.60;99.90
15556;DHT22;7879;48.660;9.116;2022-12-22T09:41:15;8.60;99.90
15556;DHT22;7879;48.660;9.116;2022-12-22T09:43:43;8.60;99.90
15556;DHT22;7879;48.660;9.116;2022-12-22T09:46:22;8.50;99.90
15556;DHT22;7879;48.660;9.116;2022-12-22T09:48:51;8.50;99.90
15556;DHT22;7879;48.660;9.116;2022-12-22T09:51:19;8.50;99.90
15556;DHT22;7879;48.660;9.116;2022-12-22T09:54:00;8.50;99.90
15556;DHT22;7879;48.660;9.116;2022-12-22T09:56:28;8.50;99.90
15556;DHT22;7879;48.660;9.116;2022-12-22T09:58:55;8.50;99.90
15556;DHT22;7879;48.660;9.116;2022-12-22T10:01:55;8.50;99.90
15556;DHT22;7879;48.660;9.116;2022-12-22T10:09:34;8.40;99.90
15556;DHT22;7879;48.660;9.116;2022-12-22T10:12:27;8.40;99.90
15556;DHT22;7879;48.660;9.116;2022-12-22T10:14:54;8.40;99.90
15556;DHT22;7879;48.660;9.116;2022-12-22T10:17:32;8.40;99.90
15556;DHT22;7879;48.660;9.116;2022-12-22T10:22:56;8.50;99.90
15556;DHT22;7879;48.660;9.116;2022-12-22T10:25:34;8.50;99.90
15556;DHT22;7879;48.660;9.116;2022-12-22T10:28:32;8.50;99.90
15556;DHT22;7879;48.660;9.116;2022-12-22T10:33:43;8.50;99.90
15556;DHT22;7879;48.660;9.116;2022-12-22T10:36:19;8.50;99.90
15556;DHT22;7879;48.660;9.116;2022-12-22T10:41:24;8.50;99.90
15556;DHT22;7879;48.660;9.116;2022-12-22T10:43:57;8.60;99.90
15556;DHT22;7879;48.660;9.116;2022-12-22T10:46:37;8.60;99.90
15556;DHT22;7879;48.660;9.116;2022-12-22T10:51:40;8.60;99.90
15556;DHT22;7879;48.660;9.116;2022-12-22T10:54:08;8.60;99.90
15556;DHT22;7879;48.660;9.116;2022-12-22T10:56:35;8.60;99.90
15556;DHT22;7879;48.660;9.116;2022-12-22T11:01:33;8.60;99.90
15556;DHT22;7879;48.660;9.116;2022-12-22T11:04:23;8.60;99.90
15556;DHT22;7879;48.660;9.116;2022-12-22T11:06:52;8.60;99.90
15556;DHT22;7879;48.660;9.116;2022-12-22T11:09:20;8.60;99.90
15556;DHT22;7879;48.660;9.116;2022-12-22T11:17:50;8.80;99.90
15556;DHT22;7879;48.660;9.116;2022-12-22T11:20:31;8.90;99.90
15556;DHT22;7879;48.660;9.116;2022-12-22T11:25:48;8.90;99.90
15556;DHT22;7879;48.660;9.116;2022-12-22T11:40:27;9.10;99.90
15556;DHT22;7879;48.660;9.116;2022-12-22T11:50:43;9.60;99.90
15556;DHT22;7879;48.660;9.116;2022-12-22T11:58:49;9.60;99.90
15556;DHT22;7879;48.660;9.116;2022-12-22T12:14:52;9.80;99.90
15556;DHT22;7879;48.660;9.116;2022-12-22T12:22:52;9.90;99.90
15556;DHT22;7879;48.660;9.116;2022-12-22T12:31:34;10.00;99.90
15556;DHT22;7879;48.660;9.116;2022-12-22T12:34:04;10.00;99.90
15556;DHT22;7879;48.660;9.116;2022-12-22T12:36:46;10.00;99.90
15556;DHT22;7879;48.660;9.116;2022-12-22T12:40:00;10.10;99.90
15556;DHT22;7879;48.660;9.116;2022-12-22T12:44:41;10.20;99.90
15556;DHT22;7879;48.660;9.116;2022-12-22T12:47:29;10.10;99.90
15556;DHT22;7879;48.660;9.116;2022-12-22T12:50:27;10.10;99.90
15556;DHT22;7879;48.660;9.116;2022-12-22T12:58:09;9.80;99.90
15556;DHT22;7879;48.660;9.116;2022-12-22T13:09:20;9.80;99.90
15556;DHT22;7879;48.660;9.116;2022-12-22T13:12:39;9.80;99.90
15556;DHT22;7879;48.660;9.116;2022-12-22T13:17:52;9.80;99.90
15556;DHT22;7879;48.660;9.116;2022-12-22T13:20:31;9.80;99.90
15556;DHT22;7879;48.660;9.116;2022-12-22T13:23:01;9.80;99.90
15556;DHT22;7879;48.660;9.116;2022-12-22T13:25:50;9.70;99.90
15556;DHT22;7879;48.660;9.116;2022-12-22T13:28:20;9.70;99.90
15556;DHT22;7879;48.660;9.116;2022-12-22T13:30:57;9.70;99.90
15556;DHT22;7879;48.660;9.116;2022-12-22T13:33:29;9.80;99.90
15556;DHT22;7879;48.660;9.116;2022-12-22T13:35:58;9.80;99.90
15556;DHT22;7879;48.660;9.116;2022-12-22T13:38:31;9.80;99.90
15556;DHT22;7879;48.660;9.116;2022-12-22T13:41:01;9.80;99.90
15556;DHT22;7879;48.660;9.116;2022-12-22T13:43:30;9.80;99.90
15556;DHT22;7879;48.660;9.116;2022-12-22T13:46:00;9.80;99.90
15556;DHT22;7879;48.660;9.116;2022-12-22T13:48:48;9.70;99.90
15556;DHT22;7879;48.660;9.116;2022-12-22T13:51:25;9.70;99.90
15556;DHT22;7879;48.660;9.116;2022-12-22T13:53:59;9.70;99.90
15556;DHT22;7879;48.660;9.116;2022-12-22T13:56:44;9.70;99.90
15556;DHT22;7879;48.660;9.116;2022-12-22T13:59:25;9.70;99.90
15556;DHT22;7879;48.660;9.116;2022-12-22T14:02:16;9.80;99.90
15556;DHT22;7879;48.660;9.116;2022-12-22T14:05:02;9.80;99.90
15556;DHT22;7879;48.660;9.116;2022-12-22T14:07:31;9.80;99.90
15556;DHT22;7879;48.660;9.116;2022-12-22T14:09:57;9.80;99.90
15556;DHT22;7879;48.660;9.116;2022-12-22T14:12:37;9.80;99.90
15556;DHT22;7879;48.660;9.116;2022-12-22T14:15:10;9.80;99.90
15556;DHT22;7879;48.660;9.116;2022-12-22T14:17:40;9.70;99.90
15556;DHT22;7879;48.660;9.116;2022-12-22T14:20:27;9.70;99.90
15556;DHT22;7879;48.660;9.116;2022-12-22T14:25:32;9.60;99.90
15556;DHT22;7879;48.660;9.116;2022-12-22T14:28:00;9.60;99.90
15556;DHT22;7879;48.660;9.116;2022-12-22T14:30:41;9.50;99.90
15556;DHT22;7879;48.660;9.116;2022-12-22T14:33:36;9.50;99.90
15556;DHT22;7879;48.660;9.116;2022-12-22T14:36:24;9.40;99.90
15556;DHT22;7879;48.660;9.116;2022-12-22T14:38:52;9.30;99.90
15556;DHT22;7879;48.660;9.116;2022-12-22T14:41:46;9.30;99.90
15556;DHT22;7879;48.660;9.116;2022-12-22T14:44:29;9.20;99.90
15556;DHT22;7879;48.660;9.116;2022-12-22T14:49:59;9.20;99.90
15556;DHT22;7879;48.660;9.116;2022-12-22T14:55:05;9.20;99.90
15556;DHT22;7879;48.660;9.116;2022-12-22T14:57:38;9.10;99.90
15556;DHT22;7879;48.660;9.116;2022-12-22T15:02:38;9.10;99.90
15556;DHT22;7879;48.660;9.116;2022-12-22T15:05:27;9.10;99.90
15556;DHT22;7879;48.660;9.116;2022-12-22T15:07:56;9.10;99.90
15556;DHT22;7879;48.660;9.116;2022-12-22T15:10:41;9.10;99.90
15556;DHT22;7879;48.660;9.116;2022-12-22T15:13:20;9.00;99.90
15556;DHT22;7879;48.660;9.116;2022-12-22T15:15:51;9.00;99.90
15556;DHT22;7879;48.660;9.116;2022-12-22T15:18:24;9.00;99.90
15556;DHT22;7879;48.660;9.116;2022-12-22T15:20:53;9.00;99.90
15556;DHT22;7879;48.660;9.116;2022-12-22T15:23:20;9.00;99.90
15556;DHT22;7879;48.660;9.116;2022-12-22T15:25:47;9.00;99.90
15556;DHT22;7879;48.660;9.116;2022-12-22T15:28:14;9.00;99.90
15556;DHT22;7879;48.660;9.116;2022-12-22T15:30:41;9.00;99.90
15556;DHT22;7879;48.660;9.116;2022-12-22T15:33:16;9.00;99.90
15556;DHT22;7879;48.660;9.116;2022-12-22T15:35:44;9.00;99.90
15556;DHT22;7879;48.660;9.116;2022-12-22T15:38:17;9.00;99.90
15556;DHT22;7879;48.660;9.116;2022-12-22T15:40:44;8.90;99.90
15556;DHT22;7879;48.660;9.116;2022-12-22T15:43:12;8.90;99.90
15556;DHT22;7879;48.660;9.116;2022-12-22T15:46:01;8.90;99.90
15556;DHT22;7879;48.660;9.116;2022-12-22T15:48:34;8.90;99.90
15556;DHT22;7879;48.660;9.116;2022-12-22T15:51:03;9.00;99.90
15556;DHT22;7879;48.660;9.116;2022-12-22T15:53:31;8.80;99.90
15556;DHT22;7879;48.660;9.116;2022-12-22T15:55:59;8.80;99.90
15556;DHT22;7879;48.660;9.116;2022-12-22T15:58:31;8.80;99.90
15556;DHT22;7879;48.660;9.116;2022-12-22T16:00:58;8.80;99.90
15556;DHT22;7879;48.660;9.116;2022-12-22T16:03:25;8.90;99.90
15556;DHT22;7879;48.660;9.116;2022-12-22T16:05:54;8.80;99.90
15556;DHT22;7879;48.660;9.116;2022-12-22T16:08:30;8.90;99.90
15556;DHT22;7879;48.660;9.116;2022-12-22T16:10:58;8.80;99.90
15556;DHT22;7879;48.660;9.116;2022-12-22T16:13:26;8.80;99.90
15556;DHT22;7879;48.660;9.116;2022-12-22T16:15:55;8.80;99.90
15556;DHT22;7879;48.660;9.116;2022-12-22T16:18:23;8.80;99.90
15556;DHT22;7879;48.660;9.116;2022-12-22T16:20:50;8.80;99.90
15556;DHT22;7879;48.660;9.116;2022-12-22T16:23:20;8.80;99.90
15556;DHT22;7879;48.660;9.116;2022-12-22T16:25:49;8.70;99.90
15556;DHT22;7879;48.660;9.116;2022-12-22T16:28:23;8.80;99.90
15556;DHT22;7879;48.660;9.116;2022-12-22T16:30:50;8.70;99.90
15556;DHT22;7879;48.660;9.116;2022-12-22T16:33:18;8.60;99.90
15556;DHT22;7879;48.660;9.116;2022-12-22T16:35:45;8.60;99.90
15556;DHT22;7879;48.660;9.116;2022-12-22T16:38:12;8.60;99.90
15556;DHT22;7879;48.660;9.116;2022-12-22T16:40:46;8.60;99.90
15556;DHT22;7879;48.660;9.116;2022-12-22T16:43:23;8.60;99.90
15556;DHT22;7879;48.660;9.116;2022-12-22T16:46:13;8.60;99.90
15556;DHT22;7879;48.660;9.116;2022-12-22T16:48:55;8.60;99.90
15556;DHT22;7879;48.660;9.116;2022-12-22T16:51:28;8.60;99.90
15556;DHT22;7879;48.660;9.116;2022-12-22T16:53:59;8.60;99.90
15556;DHT22;7879;48.660;9.116;2022-12-22T16:56:29;8.60;99.90
15556;DHT22;7879;48.660;9.116;2022-12-22T16:58:56;8.70;99.90
15556;DHT22;7879;48.660;9.116;2022-12-22T17:04:11;8.60;99.90
15556;DHT22;7879;48.660;9.116;2022-12-22T17:06:40;8.60;99.90
15556;DHT22;7879;48.660;9.116;2022-12-22T17:09:14;8.60;99.90
15556;DHT22;7879;48.660;9.116;2022-12-22T17:11:44;8.60;99.90
15556;DHT22;7879;48.660;9.116;2022-12-22T17:14:28;8.60;99.90
15556;DHT22;7879;48.660;9.116;2022-12-22T17:16:57;8.70;99.90
15556;DHT22;7879;48.660;9.116;2022-12-22T17:19:26;8.60;99.90
15556;DHT22;7879;48.660;9.116;2022-12-22T17:21:54;8.50;99.90
15556;DHT22;7879;48.660;9.116;2022-12-22T17:24:23;8.50;99.90
15556;DHT22;7879;48.660;9.116;2022-12-22T17:26:55;8.50;99.90
15556;DHT22;7879;48.660;9.116;2022-12-22T17:29:23;8.50;99.90
15556;DHT22;7879;48.660;9.116;2022-12-22T17:31:51;8.60;99.90
15556;DHT22;7879;48.660;9.116;2022-12-22T17:34:21;8.60;99.90
15556;DHT22;7879;48.660;9.116;2022-12-22T17:36:48;8.60;99.90
15556;DHT22;7879;48.660;9.116;2022-12-22T17:39:18;8.60;99.90
15556;DHT22;7879;48.660;9.116;2022-12-22T17:41:47;8.60;99.90
15556;DHT22;7879;48.660;9.116;2022-12-22T17:44:23;8.60;99.90
15556;DHT22;7879;48.660;9.116;2022-12-22T17:46:50;8.60;99.90
15556;DHT22;7879;48.660;9.116;2022-12-22T17:49:18;8.60;99.90
15556;DHT22;7879;48.660;9.116;2022-12-22T17:51:47;8.60;99.90
15556;DHT22;7879;48.660;9.116;2022-12-22T17:54:23;8.60;99.90
15556;DHT22;7879;48.660;9.116;2022-12-22T17:56:53;8.60;99.90
15556;DHT22;7879;48.660;9.116;2022-12-22T17:59:20;8.60;99.90
15556;DHT22;7879;48.660;9.116;2022-12-22T18:01:47;8.60;99.90
15556;DHT22;7879;48.660;9.116;2022-12-22T18:04:13;8.60;99.90
15556;DHT22;7879;48.660;9.116;2022-12-22T18:06:41;8.60;99.90
15556;DHT22;7879;48.660;9.116;2022-12-22T18:09:17;8.50;99.90
15556;DHT22;7879;48.660;9.116;2022-12-22T18:11:45;8.50;99.90
15556;DHT22;7879;48.660;9.116;2022-12-22T18:14:12;8.50;99.90
15556;DHT22;7879;48.660;9.116;2022-12-22T18:16:40;8.50;99.90
15556;DHT22;7879;48.660;9.116;2022-12-22T18:19:08;8.40;99.90
15556;DHT22;7879;48.660;9.116;2022-12-22T18:21:34;8.40;99.90
15556;DHT22;7879;48.660;9.116;2022-12-22T18:24:02;8.30;99.90
15556;DHT22;7879;48.660;9.116;2022-12-22T18:26:29;8.40;99.90
15556;DHT22;7879;48.660;9.116;2022-12-22T18:28:57;8.40;99.90
15556;DHT22;7879;48.660;9.116;2022-12-22T18:31:23;8.30;99.90
15556;DHT22;7879;48.660;9.116;2022-12-22T18:33:51;8.30;99.90
15556;DHT22;7879;48.660;9.116;2022-12-22T18:36:29;8.30;99.90
15556;DHT22;7879;48.660;9.116;2022-12-22T18:38:58;8.30;99.90
15556;DHT22;7879;48.660;9.116;2022-12-22T18:41:26;8.30;99.90
15556;DHT22;7879;48.660;9.116;2022-12-22T18:43:54;8.30;99.90
15556;DHT22;7879;48.660;9.116;2022-12-22T18:46:22;8.30;99.90
15556;DHT22;7879;48.660;9.116;2022-12-22T18:48:49;8.40;99.90
15556;DHT22;7879;48.660;9.116;2022-12-22T18:51:20;8.30;99.90
15556;DHT22;7879;48.660;9.116;2022-12-22T18:53:49;8.20;99.90
15556;DHT22;7879;48.660;9.116;2022-12-22T18:56:16;8.30;99.90
15556;DHT22;7879;48.660;9.116;2022-12-22T18:58:43;8.30;99.90
15556;DHT22;7879;48.660;9.116;2022-12-22T19:01:21;8.30;99.90